Cleveland, OH

5:04 AM EST on February 11, 2016 (GMT -0500)
Cleveland East Side | | Change Station
CLOSE
Current Station
Personal Weather Station
Location: Cleveland, OH
Elevation: 0 ft
Nearby Weather Stations
Active Advisory: Lake Effect Snow Advisory Active Notice: Local Storm Report

Elev 0 ft 41.51 °N, 81.64 °W | Updated 28 seconds ago

Overcast
Overcast
14.7 °F
Feels Like 9 °F
N
3.2
Wind Variable Wind from WSW

Today
High -- | Low -- °F
--% Chance of Precip.
Yesterday
High -- | Low -- °F
Precip. -- in
Pressure 30.07 in
Visibility 10.0 miles
Clouds Overcast 3600 ft
Windchill 9 °F
Dew Point 7 °F
Humidity 72%
Rainfall 0.00 in
Snow Depth Not available.
7:27 AM 5:54 PM
Waxing Crescent, 11% visible
METAR KBKL 110953Z 30021G29KT 10SM OVC036 M08/M14 A3004 RMK AO2 PK WND 32033/0927 SLP182 T10831144
Pressure 30.07 in
Visibility 10.0 miles
Clouds Overcast 3600 ft
Windchill 9 °F
Dew Point 7 °F
Humidity 72%
Rainfall 0.00 in
Snow Depth Not available.
7:27 AM 5:54 PM
Waxing Crescent, 11% visible
METAR KBKL 110953Z 30021G29KT 10SM OVC036 M08/M14 A3004 RMK AO2 PK WND 32033/0927 SLP182 T10831144

10-Day Weather Forecast

Almanac

Astronomy

Feb. 11, 2016 Rise Set
Actual Time
Civil Twilight
Nautical Twilight
Astronomical Twilight
Moon
Length of Visible Light
Length of Day
Tomorrow will be .
, % of the Moon is Illuminated

Today's Extremes

State Highs State Lows

Community

WunderPhotos

Upload Photos

1,892,030 photos uploaded!

WunderBlog® & News

Nearby

Air Quality

  Air Quality AQ Index Pollutant
Not available.

Snow Depth

Station Depth Elevation

Earthquake Activity

City Distance Mag. Time & Date
Minimum magnitude displayed is 2.5.

Coastal Water Temperatures

Place Temperature

Stations

Nearby Weather Stations

Station Location Temp. Windchill Dew Point Humidity Wind Precip. Elev Updated Type
                   

Watches & Warnings

Lake Effect Snow Advisory
Issued: 3:08 AM EST Feb. 11, 2016 – National Weather Service

... Lake effect Snow Advisory now in effect until 10 am EST this
morning...

* accumulations... additional accumulations of 1 to locally 3 inches
are possible on the eastern end of Cuyahoga County. Western
areas will see less than an additional inch of snow.

* Timing... snow showers will diminish later this morning.

* Impacts... snow covered roads and reduced visibility during
heavier snow showers and squalls.

* Winds... northwest 15 to 25 mph with gusts up to 30 mph.

* Temperatures... 12 to 18.

Precautionary/preparedness actions...

In lake effect snow the weather can vary from locally heavy snow
in narrow bands to dry weather just a few miles away. If you will
be traveling across the region be prepared for rapid changes in
Road and visibility conditions. Stay tuned to NOAA Weather Radio
for further details or updates.